createdAt,value
2018-07-15T00:01:42.880Z,13.96
2018-07-15T00:04:11.583Z,13.93
2018-07-15T00:06:40.090Z,13.90
2018-07-15T00:09:08.628Z,13.92
2018-07-15T00:11:37.168Z,13.89
2018-07-15T00:14:06.692Z,13.93
2018-07-15T00:16:35.264Z,13.99
2018-07-15T00:19:03.800Z,14.03
2018-07-15T00:21:32.525Z,14.01
2018-07-15T00:24:01.224Z,14.00
2018-07-15T00:26:29.765Z,14.03
2018-07-15T00:28:58.364Z,14.08
2018-07-15T00:31:26.907Z,14.10
2018-07-15T00:33:55.549Z,14.21
2018-07-15T00:36:25.119Z,14.34
2018-07-15T00:38:53.654Z,14.23
2018-07-15T00:41:22.184Z,14.15
2018-07-15T00:43:51.061Z,14.12
2018-07-15T00:46:19.606Z,14.11
2018-07-15T00:48:49.068Z,14.14
2018-07-15T00:51:17.617Z,14.01
2018-07-15T00:53:47.073Z,13.87
2018-07-15T00:56:15.693Z,13.89
2018-07-15T00:58:44.244Z,13.86
2018-07-15T01:01:12.777Z,13.87
2018-07-15T01:03:42.298Z,13.95
2018-07-15T01:06:10.840Z,14.09
2018-07-15T01:08:39.359Z,14.15
2018-07-15T01:11:07.900Z,14.23
2018-07-15T01:13:36.439Z,14.30
2018-07-15T01:16:06.003Z,14.32
2018-07-15T01:18:35.484Z,14.34
2018-07-15T01:21:06.038Z,14.29
2018-07-15T01:23:36.569Z,14.17
2018-07-15T01:26:05.096Z,14.01
2018-07-15T01:28:35.581Z,13.99
2018-07-15T01:31:04.126Z,13.96
2018-07-15T01:33:32.661Z,13.96
2018-07-15T01:36:02.174Z,13.98
2018-07-15T01:38:30.710Z,14.01
2018-07-15T01:40:59.264Z,14.05
2018-07-15T01:43:27.812Z,14.06
2018-07-15T01:45:56.344Z,14.12
2018-07-15T01:48:25.073Z,14.17
2018-07-15T01:50:53.640Z,14.18
2018-07-15T01:53:22.161Z,14.21
2018-07-15T01:55:50.704Z,14.22
2018-07-15T01:58:23.675Z,14.27
2018-07-15T02:00:52.200Z,14.29
2018-07-15T02:03:21.688Z,14.32
2018-07-15T02:05:52.186Z,14.34
2018-07-15T02:08:20.715Z,14.35
2018-07-15T02:14:10.858Z,14.39
2018-07-15T02:16:39.930Z,14.36
2018-07-15T02:19:09.234Z,14.34
2018-07-15T02:21:38.344Z,14.27
2018-07-15T02:24:10.628Z,14.27
2018-07-15T02:29:15.070Z,14.30
2018-07-15T02:31:44.110Z,14.29
2018-07-15T02:34:13.198Z,14.28
2018-07-15T02:39:18.392Z,14.25
2018-07-15T02:41:47.447Z,14.34
2018-07-15T02:44:17.486Z,14.42
2018-07-15T02:46:51.562Z,14.30
2018-07-15T02:49:22.617Z,14.18
2018-07-15T02:51:51.676Z,14.16
2018-07-15T02:54:20.745Z,14.09
2018-07-15T02:56:49.825Z,14.08
2018-07-15T02:59:19.835Z,14.05
2018-07-15T03:01:52.088Z,14.09
2018-07-15T03:06:56.866Z,14.22
2018-07-15T03:09:27.018Z,14.26
2018-07-15T03:11:56.059Z,14.29
2018-07-15T03:17:00.839Z,14.29
2018-07-15T03:19:29.920Z,14.22
2018-07-15T03:21:58.989Z,14.22
2018-07-15T03:24:28.073Z,14.13
2018-07-15T03:26:57.125Z,14.14
2018-07-15T03:29:26.201Z,14.16
2018-07-15T03:34:30.973Z,14.19
2018-07-15T03:37:00.066Z,14.27
2018-07-15T03:39:30.085Z,14.28
2018-07-15T03:41:59.155Z,14.36
2018-07-15T03:44:28.225Z,14.15
2018-07-15T03:46:57.481Z,14.08
2018-07-15T03:49:26.582Z,14.17
2018-07-15T03:51:55.645Z,14.06
2018-07-15T03:54:24.722Z,14.03
2018-07-15T03:56:53.785Z,14.07
2018-07-15T03:59:23.072Z,14.12
2018-07-15T04:01:52.162Z,14.19
2018-07-15T04:04:21.226Z,14.27
2018-07-15T04:06:50.498Z,14.32
2018-07-15T04:11:56.171Z,14.50
2018-07-15T04:14:33.653Z,14.51
2018-07-15T04:17:02.722Z,14.53
2018-07-15T04:19:31.789Z,14.62
2018-07-15T04:22:01.011Z,14.73
2018-07-15T04:24:30.080Z,14.81
2018-07-15T04:27:00.187Z,14.85
2018-07-15T04:29:30.194Z,14.86
2018-07-15T04:31:59.258Z,14.84
2018-07-15T04:34:28.650Z,14.81
2018-07-15T04:39:35.446Z,14.81
2018-07-15T04:42:04.507Z,14.91
2018-07-15T04:44:33.606Z,14.87
2018-07-15T04:47:02.713Z,14.79
2018-07-15T04:49:31.865Z,14.84
2018-07-15T04:52:01.389Z,14.84
2018-07-15T04:54:30.437Z,14.92
2018-07-15T04:56:59.517Z,14.99
2018-07-15T04:59:28.879Z,15.07
2018-07-15T05:02:01.202Z,15.14
2018-07-15T05:04:30.202Z,15.25
2018-07-15T05:06:59.278Z,15.45
2018-07-15T05:09:29.290Z,15.45
2018-07-15T05:14:35.101Z,15.44
2018-07-15T05:17:04.170Z,15.57
2018-07-15T05:19:34.186Z,15.73
2018-07-15T05:22:03.249Z,15.85
2018-07-15T05:24:32.313Z,15.92
2018-07-15T05:32:12.924Z,16.43
2018-07-15T05:37:17.930Z,16.75
2018-07-15T05:44:58.159Z,17.23
2018-07-15T05:50:05.574Z,17.40
2018-07-15T05:52:34.657Z,17.48
2018-07-15T05:55:06.183Z,17.59
2018-07-15T06:02:48.797Z,17.96
2018-07-15T06:05:17.879Z,18.07
2018-07-15T06:07:47.122Z,18.17
2018-07-15T06:10:16.215Z,18.27
2018-07-15T06:12:45.260Z,18.37
2018-07-15T06:17:53.685Z,18.64
2018-07-15T06:20:22.779Z,18.72
2018-07-15T06:22:52.333Z,18.80
2018-07-15T06:25:21.516Z,18.84
2018-07-15T06:30:35.600Z,19.03
2018-07-15T06:33:06.195Z,19.08
2018-07-15T06:35:40.228Z,19.14
2018-07-15T06:38:09.603Z,19.24
2018-07-15T06:40:43.475Z,19.34
2018-07-15T06:43:15.799Z,19.44
2018-07-15T06:45:47.968Z,19.55
2018-07-15T06:48:19.814Z,19.59
2018-07-15T06:50:50.841Z,19.70
2018-07-15T06:53:23.803Z,19.77
2018-07-15T06:55:57.987Z,19.97
2018-07-15T07:01:03.791Z,20.30
2018-07-15T07:03:35.572Z,20.42
2018-07-15T07:06:04.614Z,20.48
2018-07-15T07:11:11.697Z,20.56
2018-07-15T07:13:42.770Z,20.71
2018-07-15T07:16:12.184Z,20.79
2018-07-15T07:21:17.428Z,20.89
2018-07-15T07:23:46.494Z,21.01
2018-07-15T07:28:51.487Z,21.28
2018-07-15T07:31:23.068Z,21.28
2018-07-15T07:33:54.946Z,21.34
2018-07-15T07:36:25.916Z,21.43
2018-07-15T07:38:58.930Z,21.45
2018-07-15T07:41:33.702Z,21.67
2018-07-15T07:44:06.811Z,21.69
2018-07-15T07:46:40.547Z,21.89
2018-07-15T07:49:13.387Z,22.08
2018-07-15T07:51:46.224Z,22.13
2018-07-15T07:54:18.338Z,22.22
2018-07-15T07:56:49.786Z,22.36
2018-07-15T07:59:22.268Z,22.29
2018-07-15T08:01:53.440Z,22.41
2018-07-15T08:04:26.321Z,22.48
2018-07-15T08:07:00.995Z,22.53
2018-07-15T08:12:10.147Z,22.60
2018-07-15T08:14:43.912Z,22.64
2018-07-15T08:17:17.480Z,22.52
2018-07-15T08:19:46.549Z,22.51
2018-07-15T08:24:55.932Z,22.84
2018-07-15T08:32:41.281Z,23.29
2018-07-15T08:35:13.482Z,23.37
2018-07-15T08:37:46.589Z,23.67
2018-07-15T08:40:21.143Z,23.77
2018-07-15T08:42:53.116Z,23.77
2018-07-15T08:45:23.523Z,23.98
2018-07-15T08:47:57.078Z,24.18
2018-07-15T08:50:29.068Z,24.18
2018-07-15T08:53:01.106Z,24.04
2018-07-15T08:55:33.104Z,24.00
2018-07-15T08:58:02.196Z,24.10
2018-07-15T09:00:31.243Z,24.19
2018-07-15T09:03:00.686Z,24.53
2018-07-15T09:05:29.765Z,24.85
2018-07-15T09:07:58.802Z,24.86
2018-07-15T09:10:28.126Z,24.82
2018-07-15T09:12:57.180Z,25.04
2018-07-15T09:15:26.235Z,25.09
2018-07-15T09:17:55.545Z,25.12
2018-07-15T09:20:24.773Z,25.23
2018-07-15T09:22:55.827Z,25.53
2018-07-15T09:28:00.891Z,26.43
2018-07-15T09:30:30.066Z,27.54
2018-07-15T09:32:59.119Z,29.01
2018-07-15T09:35:28.653Z,30.23
2018-07-15T09:37:57.703Z,30.47
2018-07-15T09:40:26.772Z,30.02
2018-07-15T09:42:57.050Z,29.32
2018-07-15T09:45:26.141Z,29.38
2018-07-15T09:47:55.198Z,31.42
2018-07-15T09:53:00.123Z,29.75
2018-07-15T09:55:29.154Z,29.42
2018-07-15T09:57:58.458Z,30.72
2018-07-15T10:00:27.516Z,32.83
2018-07-15T10:02:56.574Z,34.02
2018-07-15T10:05:26.013Z,32.22
2018-07-15T10:07:55.086Z,31.96
2018-07-15T10:10:26.176Z,35.17
2018-07-15T10:12:55.188Z,32.34
2018-07-15T10:15:24.526Z,31.02
2018-07-15T10:17:53.588Z,33.82
2018-07-15T10:22:58.519Z,34.84
2018-07-15T10:25:27.585Z,35.70
2018-07-15T10:27:56.637Z,35.76
2018-07-15T10:30:26.078Z,33.48
2018-07-15T10:32:55.130Z,34.00
2018-07-15T10:38:00.067Z,37.17
2018-07-15T10:40:29.186Z,39.32
2018-07-15T10:42:58.392Z,38.38
2018-07-15T10:45:27.466Z,38.15
2018-07-15T10:47:56.503Z,37.06
2018-07-15T10:50:25.560Z,37.01
2018-07-15T10:52:55.673Z,34.64
2018-07-15T10:55:24.701Z,34.95
2018-07-15T10:57:53.787Z,38.24
2018-07-15T11:00:23.349Z,39.55
2018-07-15T11:02:52.397Z,39.58
2018-07-15T11:05:21.461Z,41.67
2018-07-15T11:07:50.782Z,41.85
2018-07-15T11:10:20.087Z,42.12
2018-07-15T11:12:49.152Z,39.99
2018-07-15T11:15:18.204Z,39.91
2018-07-15T11:20:22.941Z,37.93
2018-07-15T11:22:52.102Z,35.48
2018-07-15T11:25:21.138Z,36.01
2018-07-15T11:27:51.130Z,36.45
2018-07-15T11:30:20.509Z,37.44
2018-07-15T11:32:49.704Z,37.38
2018-07-15T11:35:18.767Z,39.94
2018-07-15T11:37:47.809Z,39.28
2018-07-15T11:40:16.868Z,37.76
2018-07-15T11:42:46.864Z,37.07
2018-07-15T11:45:15.909Z,37.81
2018-07-15T11:47:45.328Z,36.12
2018-07-15T11:50:14.386Z,36.54
2018-07-15T11:52:43.444Z,36.30
2018-07-15T11:55:12.766Z,37.91
2018-07-15T11:57:43.024Z,34.73
2018-07-15T12:00:12.104Z,31.93
2018-07-15T12:02:41.152Z,32.83
2018-07-15T12:05:10.561Z,36.51
2018-07-15T12:10:17.524Z,35.98
2018-07-15T12:15:22.421Z,39.51
2018-07-15T12:17:51.676Z,40.01
2018-07-15T12:20:20.770Z,38.89
2018-07-15T12:22:49.785Z,38.56
2018-07-15T12:25:19.173Z,35.64
2018-07-15T12:30:24.137Z,34.52
2018-07-15T12:32:53.220Z,33.31
2018-07-15T12:35:22.275Z,33.69
2018-07-15T12:37:51.337Z,32.86
2018-07-15T12:40:20.868Z,33.41
2018-07-15T12:42:49.911Z,33.35
2018-07-15T12:45:18.964Z,34.51
2018-07-15T12:47:48.486Z,35.79
2018-07-15T12:50:17.537Z,32.93
2018-07-15T12:52:46.642Z,33.18
2018-07-15T12:57:51.500Z,32.44
2018-07-15T13:00:20.909Z,34.15
2018-07-15T13:02:50.277Z,35.09
2018-07-15T13:05:19.404Z,35.31
2018-07-15T13:07:48.466Z,33.31
2018-07-15T13:10:18.165Z,35.37
2018-07-15T13:15:24.249Z,34.00
2018-07-15T13:17:53.528Z,32.27
2018-07-15T13:20:22.602Z,31.14
2018-07-15T13:22:52.636Z,30.39
2018-07-15T13:25:22.650Z,30.95
2018-07-15T13:27:53.923Z,30.47
2018-07-15T13:30:22.989Z,30.01
2018-07-15T13:32:52.043Z,29.32
2018-07-15T13:35:21.123Z,29.09
2018-07-15T13:37:50.194Z,29.63
2018-07-15T13:40:19.245Z,29.66
2018-07-15T13:42:48.305Z,29.43
2018-07-15T13:45:17.800Z,29.04
2018-07-15T13:47:47.810Z,28.37
2018-07-15T13:50:16.926Z,27.81
2018-07-15T13:52:45.975Z,27.50
2018-07-15T13:55:19.703Z,27.55
2018-07-15T13:57:51.875Z,27.71
2018-07-15T14:00:20.946Z,27.40
2018-07-15T14:02:50.382Z,27.26
2018-07-15T14:05:23.173Z,26.27
2018-07-15T14:07:52.921Z,25.77
2018-07-15T14:10:21.965Z,25.21
2018-07-15T14:12:53.023Z,25.23
2018-07-15T14:17:57.912Z,24.84
2018-07-15T14:23:06.824Z,24.76
2018-07-15T14:25:38.007Z,24.66
2018-07-15T14:28:07.757Z,24.04
2018-07-15T14:33:22.373Z,22.75
2018-07-15T14:35:53.565Z,22.51
2018-07-15T14:38:24.273Z,21.97
2018-07-15T14:43:38.461Z,22.02
2018-07-15T14:48:50.152Z,21.90
2018-07-15T14:51:25.842Z,21.77
2018-07-15T14:54:00.395Z,21.65
2018-07-15T14:56:30.952Z,21.63
2018-07-15T15:01:35.834Z,21.59
2018-07-15T15:04:05.084Z,21.60
2018-07-15T15:06:34.123Z,21.41
2018-07-15T15:09:03.191Z,21.38
2018-07-15T15:11:32.361Z,21.59
2018-07-15T15:14:02.548Z,21.58
2018-07-15T15:16:31.609Z,21.02
2018-07-15T15:24:13.061Z,20.65
2018-07-15T15:26:43.140Z,20.52
2018-07-15T15:29:14.488Z,20.87
2018-07-15T15:31:43.540Z,21.19
2018-07-15T15:34:13.593Z,22.57
2018-07-15T15:36:42.642Z,26.14
2018-07-15T15:39:12.073Z,28.68
2018-07-15T15:41:41.122Z,31.69
2018-07-15T15:44:10.189Z,33.54
2018-07-15T15:51:54.812Z,35.89
2018-07-15T15:54:25.129Z,36.36
2018-07-15T15:59:31.083Z,35.86
2018-07-15T16:02:00.672Z,37.98
2018-07-15T16:07:07.996Z,38.47
2018-07-15T16:09:38.947Z,36.54
2018-07-15T16:12:09.359Z,38.28
2018-07-15T16:17:14.202Z,35.08
2018-07-15T16:19:44.273Z,36.48
2018-07-15T16:22:13.330Z,34.21
2018-07-15T16:27:20.217Z,33.70
2018-07-15T16:29:50.285Z,32.04
2018-07-15T16:32:20.327Z,29.17
2018-07-15T16:34:50.142Z,26.33
2018-07-15T16:39:55.935Z,24.70
2018-07-15T16:42:25.147Z,23.64
2018-07-15T16:44:54.247Z,23.36
2018-07-15T16:47:23.298Z,22.87
2018-07-15T16:52:28.209Z,23.75
2018-07-15T16:54:57.259Z,24.18
2018-07-15T16:57:27.511Z,24.44
2018-07-15T16:59:56.595Z,23.76
2018-07-15T17:05:00.815Z,23.76
2018-07-15T17:07:31.854Z,23.29
2018-07-15T17:10:00.922Z,24.05
2018-07-15T17:12:31.059Z,23.78
2018-07-15T17:15:00.402Z,23.55
2018-07-15T17:20:05.454Z,22.53
2018-07-15T17:25:10.386Z,22.18
2018-07-15T17:27:39.657Z,22.01
2018-07-15T17:30:08.714Z,22.03
2018-07-15T17:37:52.562Z,21.98
2018-07-15T17:42:57.356Z,22.02
2018-07-15T17:45:26.444Z,22.26
2018-07-15T17:50:31.297Z,22.06
2018-07-15T17:53:00.383Z,21.90
2018-07-15T17:55:29.753Z,21.66
2018-07-15T17:57:58.806Z,21.43
2018-07-15T18:00:27.879Z,21.68
2018-07-15T18:02:57.480Z,21.54
2018-07-15T18:08:02.261Z,21.21
2018-07-15T18:15:44.279Z,20.97
2018-07-15T18:18:14.412Z,20.77
2018-07-15T18:20:43.473Z,20.72
2018-07-15T18:23:12.507Z,20.74
2018-07-15T18:25:42.618Z,20.86
2018-07-15T18:28:11.682Z,20.68
2018-07-15T18:30:40.737Z,20.59
2018-07-15T18:33:10.821Z,20.56
2018-07-15T18:38:20.172Z,20.40
2018-07-15T18:40:49.209Z,20.39
2018-07-15T18:45:54.291Z,20.43
2018-07-15T18:48:23.359Z,20.53
2018-07-15T18:50:52.399Z,20.71
2018-07-15T18:53:21.508Z,20.43
2018-07-15T18:55:50.799Z,20.36
2018-07-15T18:58:19.855Z,20.24
2018-07-15T19:00:49.033Z,20.07
2018-07-15T19:03:18.077Z,19.98
2018-07-15T19:08:24.938Z,19.85
2018-07-15T19:10:53.999Z,19.88
2018-07-15T19:13:23.034Z,19.78
2018-07-15T19:15:54.077Z,19.72
2018-07-15T19:20:58.853Z,19.58
2018-07-15T19:23:27.910Z,19.44
2018-07-15T19:25:56.968Z,19.32
2018-07-15T19:31:01.820Z,19.22
2018-07-15T19:33:31.813Z,19.15
2018-07-15T19:36:00.859Z,18.87
2018-07-15T19:38:29.911Z,18.88
2018-07-15T19:40:58.977Z,18.65
2018-07-15T19:43:28.049Z,18.60
2018-07-15T19:45:57.099Z,18.51
2018-07-15T19:48:27.124Z,18.37
2018-07-15T19:50:56.169Z,18.24
2018-07-15T19:53:25.225Z,18.22
2018-07-15T19:55:54.287Z,18.27
2018-07-15T19:58:23.346Z,18.13
2018-07-15T20:00:52.510Z,18.18
2018-07-15T20:03:22.423Z,18.03
2018-07-15T20:08:27.295Z,18.08
2018-07-15T20:10:58.363Z,18.24
2018-07-15T20:13:27.430Z,18.20
2018-07-15T20:18:32.211Z,18.02
2018-07-15T20:21:01.359Z,17.87
2018-07-15T20:23:30.327Z,17.68
2018-07-15T20:25:59.418Z,17.43
2018-07-15T20:28:29.401Z,17.27
2018-07-15T20:30:59.418Z,17.18
2018-07-15T20:33:28.477Z,17.19
2018-07-15T20:35:57.550Z,17.02
2018-07-15T20:43:38.155Z,16.86
2018-07-15T20:46:07.189Z,16.77
2018-07-15T20:48:36.400Z,16.60
2018-07-15T20:51:05.458Z,16.44
2018-07-15T20:56:10.325Z,16.39
2018-07-15T20:58:39.367Z,16.44
2018-07-15T21:03:44.143Z,16.37
2018-07-15T21:11:24.738Z,16.54
2018-07-15T21:13:53.791Z,16.47
2018-07-15T21:16:24.749Z,16.17
2018-07-15T21:18:54.770Z,16.06
2018-07-15T21:21:27.453Z,16.05
2018-07-15T21:23:56.514Z,15.95
2018-07-15T21:26:25.574Z,15.90
2018-07-15T21:28:54.627Z,16.02
2018-07-15T21:31:23.728Z,16.07
2018-07-15T21:33:52.759Z,16.09
2018-07-15T21:36:21.814Z,16.06
2018-07-15T21:38:50.870Z,15.99
2018-07-15T21:41:19.932Z,16.00
2018-07-15T21:43:49.003Z,16.02
2018-07-15T21:46:18.053Z,16.11
2018-07-15T21:48:47.108Z,16.08
2018-07-15T21:51:16.180Z,16.11
2018-07-15T21:53:46.202Z,16.18
2018-07-15T21:58:51.050Z,16.36
2018-07-15T22:01:20.128Z,16.55
2018-07-15T22:06:26.888Z,16.31
2018-07-15T22:12:19.667Z,16.21
2018-07-15T22:17:24.430Z,16.17
2018-07-15T22:19:54.494Z,16.04
2018-07-15T22:22:23.546Z,16.00
2018-07-15T22:24:54.772Z,15.99
2018-07-15T22:27:24.842Z,16.03
2018-07-15T22:29:55.843Z,16.03
2018-07-15T22:32:24.905Z,15.80
2018-07-15T22:34:53.953Z,15.51
2018-07-15T22:37:23.016Z,15.52
2018-07-15T22:39:52.085Z,15.46
2018-07-15T22:42:22.218Z,15.39
2018-07-15T22:44:51.261Z,15.28
2018-07-15T22:49:56.033Z,15.30
2018-07-15T22:52:27.067Z,15.41
2018-07-15T22:54:56.230Z,15.55
2018-07-15T22:57:25.289Z,15.58
2018-07-15T22:59:54.358Z,15.45
2018-07-15T23:02:25.398Z,15.44
2018-07-15T23:07:30.188Z,15.40
2018-07-15T23:09:59.253Z,15.35
2018-07-15T23:12:28.322Z,15.23
2018-07-15T23:14:57.397Z,15.22
2018-07-15T23:20:02.234Z,15.13
2018-07-15T23:22:31.303Z,15.16
2018-07-15T23:25:00.354Z,15.16
2018-07-15T23:27:29.628Z,15.22
2018-07-15T23:29:58.641Z,15.07
2018-07-15T23:32:27.703Z,14.88
2018-07-15T23:37:32.487Z,14.90
2018-07-15T23:40:01.555Z,14.88
2018-07-15T23:45:06.334Z,15.02
2018-07-15T23:47:35.397Z,14.97
2018-07-15T23:52:40.278Z,15.12
2018-07-15T23:55:09.343Z,15.30
